createdAt,value
2018-02-13T00:00:51.565Z,97739.16
2018-02-13T00:03:22.655Z,97747.38
2018-02-13T00:05:53.777Z,97743.47
2018-02-13T00:08:24.806Z,97745.98
2018-02-13T00:10:55.899Z,97745.98
2018-02-13T00:13:26.983Z,97743.77
2018-02-13T00:15:58.043Z,97745.77
2018-02-13T00:18:29.102Z,97735.27
2018-02-13T00:21:00.178Z,97738.95
2018-02-13T00:23:31.239Z,97745.76
2018-02-13T00:26:02.271Z,97740.89
2018-02-13T00:28:33.330Z,97740.70
2018-02-13T00:31:04.431Z,97738.95
2018-02-13T00:33:35.463Z,97741.42
2018-02-13T00:36:06.502Z,97741.25
2018-02-13T00:38:37.575Z,97740.13
2018-02-13T00:41:08.656Z,97743.38
2018-02-13T00:43:54.646Z,97739.38
2018-02-13T00:46:25.667Z,97742.69
2018-02-13T00:48:56.762Z,97740.34
2018-02-13T00:51:27.813Z,97747.57
2018-02-13T00:53:58.894Z,97746.64
2018-02-13T00:56:29.951Z,97740.91
2018-02-13T00:59:01.130Z,97747.22
2018-02-13T01:01:32.142Z,97740.91
2018-02-13T01:04:03.259Z,97743.66
2018-02-13T01:06:34.301Z,97742.09
2018-02-13T01:09:05.392Z,97743.56
2018-02-13T01:11:36.454Z,97739.45
2018-02-13T01:14:07.508Z,97739.81
2018-02-13T01:16:38.619Z,97736.02
2018-02-13T01:19:09.680Z,97737.25
2018-02-13T01:21:40.759Z,97735.03
2018-02-13T01:24:11.833Z,97737.79
2018-02-13T01:26:42.981Z,97733.84
2018-02-13T01:29:14.014Z,97735.67
2018-02-13T01:31:45.062Z,97736.97
2018-02-13T01:34:16.140Z,97731.55
2018-02-13T01:36:47.184Z,97733.53
2018-02-13T01:39:18.234Z,97728.76
2018-02-13T01:41:49.241Z,97727.31
2018-02-13T01:44:20.361Z,97727.57
2018-02-13T01:46:51.366Z,97729.35
2018-02-13T01:49:22.479Z,97735.22
2018-02-13T01:51:53.570Z,97730.84
2018-02-13T01:54:24.737Z,97733.88
2018-02-13T01:56:55.849Z,97726.91
2018-02-13T01:59:26.894Z,97734.45
2018-02-13T02:01:57.984Z,97733.61
2018-02-13T02:04:29.042Z,97734.75
2018-02-13T02:07:01.507Z,97740.70
2018-02-13T02:09:32.612Z,97730.55
2018-02-13T02:12:03.637Z,97737.92
2018-02-13T02:14:34.795Z,97730.41
2018-02-13T02:17:05.835Z,97738.51
2018-02-13T02:19:36.905Z,97732.40
2018-02-13T02:22:07.993Z,97733.61
2018-02-13T02:24:39.115Z,97739.93
2018-02-13T02:27:10.213Z,97733.91
2018-02-13T02:29:41.306Z,97728.49
2018-02-13T02:32:13.226Z,97725.84
2018-02-13T02:34:44.253Z,97726.69
2018-02-13T02:37:15.327Z,97723.14
2018-02-13T02:39:46.411Z,97724.80
2018-02-13T02:42:17.474Z,97721.36
2018-02-13T02:44:48.538Z,97719.87
2018-02-13T02:47:19.620Z,97724.71
2018-02-13T02:49:50.724Z,97721.55
2018-02-13T02:52:21.827Z,97716.30
2018-02-13T02:54:52.962Z,97720.55
2018-02-13T02:57:24.038Z,97717.31
2018-02-13T02:59:55.090Z,97716.25
2018-02-13T03:02:26.153Z,97715.84
2018-02-13T03:04:57.239Z,97716.17
2018-02-13T03:07:28.291Z,97718.07
2018-02-13T03:10:00.296Z,97712.39
2018-02-13T03:12:31.374Z,97709.73
2018-02-13T03:15:02.452Z,97708.55
2018-02-13T03:17:33.493Z,97708.17
2018-02-13T03:20:05.217Z,97717.31
2018-02-13T03:22:36.263Z,97707.83
2018-02-13T03:25:07.331Z,97706.83
2018-02-13T03:27:38.362Z,97708.22
2018-02-13T03:30:09.410Z,97704.37
2018-02-13T03:32:40.509Z,97710.03
2018-02-13T03:35:11.615Z,97710.26
2018-02-13T03:37:42.659Z,97712.03
2018-02-13T03:40:13.829Z,97703.47
2018-02-13T03:42:44.888Z,97712.52
2018-02-13T03:45:15.954Z,97703.35
2018-02-13T03:47:46.997Z,97696.33
2018-02-13T03:50:18.067Z,97707.53
2018-02-13T03:52:49.137Z,97707.05
2018-02-13T03:55:20.157Z,97708.21
2018-02-13T03:57:51.223Z,97707.63
2018-02-13T04:00:22.332Z,97710.11
2018-02-13T04:02:53.413Z,97712.66
2018-02-13T04:05:24.457Z,97708.42
2018-02-13T04:07:55.504Z,97714.05
2018-02-13T04:10:26.576Z,97714.13
2018-02-13T04:12:57.606Z,97711.05
2018-02-13T04:15:28.701Z,97711.03
2018-02-13T04:17:59.745Z,97713.22
2018-02-13T04:20:30.885Z,97711.03
2018-02-13T04:23:01.923Z,97712.85
2018-02-13T04:25:33.171Z,97711.38
2018-02-13T04:28:04.212Z,97707.01
2018-02-13T04:30:35.361Z,97706.20
2018-02-13T04:33:06.395Z,97710.00
2018-02-13T04:35:37.515Z,97705.31
2018-02-13T04:38:08.557Z,97705.48
2018-02-13T04:40:39.655Z,97701.28
2018-02-13T04:43:10.666Z,97702.95
2018-02-13T04:45:41.738Z,97704.77
2018-02-13T04:48:12.822Z,97703.79
2018-02-13T04:50:43.911Z,97704.70
2018-02-13T04:53:14.964Z,97706.89
2018-02-13T04:55:46.054Z,97700.98
2018-02-13T04:58:17.125Z,97697.10
2018-02-13T05:00:48.202Z,97694.36
2018-02-13T05:03:19.308Z,97699.20
2018-02-13T05:05:50.387Z,97697.19
2018-02-13T05:08:21.457Z,97698.10
2018-02-13T05:10:52.523Z,97695.34
2018-02-13T05:13:23.663Z,97693.72
2018-02-13T05:15:54.727Z,97689.58
2018-02-13T05:18:25.848Z,97691.30
2018-02-13T05:20:56.965Z,97690.31
2018-02-13T05:23:28.162Z,97692.68
2018-02-13T05:25:59.291Z,97694.21
2018-02-13T05:28:30.378Z,97693.16
2018-02-13T05:31:01.450Z,97694.10
2018-02-13T05:33:32.561Z,97691.20
2018-02-13T05:36:03.629Z,97695.05
2018-02-13T05:38:34.751Z,97692.49
2018-02-13T05:41:05.794Z,97696.11
2018-02-13T05:43:36.879Z,97696.17
2018-02-13T05:46:07.911Z,97692.63
2018-02-13T05:48:38.991Z,97691.09
2018-02-13T05:51:10.055Z,97694.46
2018-02-13T05:53:41.119Z,97698.83
2018-02-13T05:56:12.211Z,97698.41
2018-02-13T05:58:43.241Z,97693.70
2018-02-13T06:01:14.338Z,97689.63
2018-02-13T06:03:45.483Z,97688.80
2018-02-13T06:06:16.557Z,97692.20
2018-02-13T06:08:47.618Z,97691.36
2018-02-13T06:11:18.723Z,97691.59
2018-02-13T06:13:49.794Z,97693.02
2018-02-13T06:16:20.875Z,97700.03
2018-02-13T06:18:52.690Z,97698.42
2018-02-13T06:21:23.860Z,97698.63
2018-02-13T06:23:56.128Z,97703.64
2018-02-13T06:26:27.271Z,97704.58
2018-02-13T06:28:58.362Z,97708.94
2018-02-13T06:31:29.378Z,97710.31
2018-02-13T06:34:00.503Z,97705.06
2018-02-13T06:36:31.555Z,97705.06
2018-02-13T06:39:02.733Z,97699.69
2018-02-13T06:41:33.869Z,97694.84
2018-02-13T06:44:04.994Z,97693.70
2018-02-13T06:46:36.003Z,97702.39
2018-02-13T06:49:07.137Z,97698.73
2018-02-13T06:51:38.219Z,97705.48
2018-02-13T06:54:09.295Z,97705.67
2018-02-13T06:56:40.402Z,97704.41
2018-02-13T06:59:11.514Z,97705.17
2018-02-13T07:01:42.560Z,97709.89
2018-02-13T07:04:13.646Z,97707.23
2018-02-13T07:06:44.696Z,97709.20
2018-02-13T07:09:15.813Z,97715.59
2018-02-13T07:11:46.870Z,97716.80
2018-02-13T07:14:18.017Z,97714.12
2018-02-13T07:16:49.047Z,97711.77
2018-02-13T07:19:20.132Z,97719.64
2018-02-13T07:21:51.174Z,97720.06
2018-02-13T07:24:22.445Z,97715.20
2018-02-13T07:26:53.548Z,97713.11
2018-02-13T07:29:24.601Z,97708.77
2018-02-13T07:31:55.681Z,97698.66
2018-02-13T07:34:26.744Z,97708.22
2018-02-13T07:36:57.823Z,97704.33
2018-02-13T07:39:29.528Z,97702.85
2018-02-13T07:42:00.622Z,97704.32
2018-02-13T07:44:31.702Z,97702.20
2018-02-13T07:47:02.743Z,97696.38
2018-02-13T07:49:33.876Z,97698.80
2018-02-13T07:52:04.954Z,97699.30
2018-02-13T07:54:36.024Z,97700.84
2018-02-13T07:57:07.049Z,97699.09
2018-02-13T07:59:38.131Z,97701.66
2018-02-13T08:02:09.217Z,97701.30
2018-02-13T08:04:40.260Z,97696.05
2018-02-13T08:07:11.334Z,97701.13
2018-02-13T08:09:42.440Z,97697.79
2018-02-13T08:12:13.549Z,97700.03
2018-02-13T08:14:44.633Z,97696.58
2018-02-13T08:17:15.850Z,97690.09
2018-02-13T08:19:46.905Z,97689.28
2018-02-13T08:22:18.266Z,97685.15
2018-02-13T08:24:49.388Z,97685.09
2018-02-13T08:27:20.498Z,97682.47
2018-02-13T08:29:51.546Z,97687.64
2018-02-13T08:32:22.595Z,97683.48
2018-02-13T08:34:53.707Z,97685.22
2018-02-13T08:37:24.782Z,97677.47
2018-02-13T08:39:55.896Z,97677.70
2018-02-13T08:42:26.985Z,97670.58
2018-02-13T08:44:58.054Z,97655.95
2018-02-13T08:47:29.162Z,97640.89
2018-02-13T08:50:00.232Z,97630.91
2018-02-13T08:52:31.301Z,97623.56
2018-02-13T08:55:02.403Z,97608.93
2018-02-13T08:57:33.561Z,97609.28
2018-02-13T09:00:04.607Z,97601.86
2018-02-13T09:02:35.691Z,97603.83
2018-02-13T09:05:06.750Z,97597.45
2018-02-13T09:07:37.830Z,97593.03
2018-02-13T09:10:08.905Z,97595.72
2018-02-13T09:12:39.979Z,97587.73
2018-02-13T09:15:11.038Z,97578.13
2018-02-13T09:17:42.113Z,97577.69
2018-02-13T09:20:13.159Z,97574.22
2018-02-13T09:22:44.286Z,97572.84
2018-02-13T09:25:15.442Z,97564.73
2018-02-13T09:27:46.511Z,97560.20
2018-02-13T09:30:17.652Z,97555.31
2018-02-13T09:32:48.717Z,97555.22
2018-02-13T09:35:19.826Z,97559.32
2018-02-13T09:37:50.851Z,97547.80
2018-02-13T09:40:22.003Z,97554.59
2018-02-13T09:42:53.037Z,97549.03
2018-02-13T09:45:24.131Z,97551.89
2018-02-13T09:47:55.168Z,97548.13
2018-02-13T09:50:26.324Z,97551.48
2018-02-13T09:52:57.425Z,97543.52
2018-02-13T09:55:28.508Z,97547.00
2018-02-13T09:57:59.625Z,97538.74
2018-02-13T10:00:30.783Z,97544.98
2018-02-13T10:03:01.920Z,97544.53
2018-02-13T10:05:33.550Z,97544.66
2018-02-13T10:08:04.648Z,97537.03
2018-02-13T10:10:35.686Z,97533.95
2018-02-13T10:13:06.792Z,97538.50
2018-02-13T10:15:37.869Z,97536.09
2018-02-13T10:18:09.917Z,97535.50
2018-02-13T10:20:40.992Z,97529.06
2018-02-13T10:23:12.098Z,97524.16
2018-02-13T10:25:43.222Z,97521.33
2018-02-13T10:28:14.341Z,97517.14
2018-02-13T10:30:45.405Z,97516.54
2018-02-13T10:33:16.538Z,97511.65
2018-02-13T10:35:47.640Z,97510.36
2018-02-13T10:38:18.818Z,97508.42
2018-02-13T10:40:49.877Z,97508.78
2018-02-13T10:43:20.966Z,97501.16
2018-02-13T10:45:52.016Z,97498.44
2018-02-13T10:48:23.170Z,97496.74
2018-02-13T10:50:54.260Z,97494.39
2018-02-13T10:53:25.328Z,97494.53
2018-02-13T10:55:56.368Z,97482.25
2018-02-13T10:58:27.419Z,97481.02
2018-02-13T11:01:04.570Z,97482.96
2018-02-13T11:03:35.666Z,97486.34
2018-02-13T11:06:06.729Z,97470.88
2018-02-13T11:08:37.849Z,97469.54
2018-02-13T11:11:08.949Z,97464.88
2018-02-13T11:13:40.016Z,97455.06
2018-02-13T11:16:11.136Z,97454.19
2018-02-13T11:18:42.200Z,97449.92
2018-02-13T11:21:13.337Z,97450.55
2018-02-13T11:23:44.401Z,97455.73
2018-02-13T11:26:15.497Z,97452.83
2018-02-13T11:28:46.515Z,97445.81
2018-02-13T11:31:25.344Z,97438.16
2018-02-13T11:33:57.384Z,97438.89
2018-02-13T11:36:29.104Z,97434.22
2018-02-13T11:39:00.171Z,97426.16
2018-02-13T11:41:31.213Z,97424.69
2018-02-13T11:44:02.287Z,97421.36
2018-02-13T11:46:33.390Z,97432.61
2018-02-13T11:49:05.120Z,97428.55
2018-02-13T11:51:36.190Z,97425.63
2018-02-13T11:54:07.298Z,97421.78
2018-02-13T11:56:38.346Z,97425.13
2018-02-13T11:59:09.477Z,97420.89
2018-02-13T12:01:40.527Z,97419.41
2018-02-13T12:04:11.601Z,97414.85
2018-02-13T12:06:42.667Z,97414.52
2018-02-13T12:09:13.926Z,97396.20
2018-02-13T12:11:44.965Z,97398.19
2018-02-13T12:14:16.087Z,97394.91
2018-02-13T12:16:47.141Z,97389.73
2018-02-13T12:19:18.250Z,97389.61
2018-02-13T12:21:49.321Z,97376.56
2018-02-13T12:24:20.411Z,97371.14
2018-02-13T12:26:51.504Z,97373.77
2018-02-13T12:29:22.613Z,97374.47
2018-02-13T12:31:53.680Z,97370.11
2018-02-13T12:34:24.769Z,97369.41
2018-02-13T12:36:55.846Z,97363.89
2018-02-13T12:39:26.994Z,97363.19
2018-02-13T12:41:58.121Z,97361.11
2018-02-13T12:44:29.296Z,97353.67
2018-02-13T12:47:00.385Z,97348.45
2018-02-13T12:49:31.551Z,97347.42
2018-02-13T12:52:02.676Z,97349.07
2018-02-13T12:54:33.782Z,97349.80
2018-02-13T12:57:04.890Z,97346.98
2018-02-13T12:59:35.997Z,97335.44
2018-02-13T13:02:07.089Z,97339.39
2018-02-13T13:04:38.278Z,97331.26
2018-02-13T13:07:09.327Z,97326.37
2018-02-13T13:09:40.465Z,97317.36
2018-02-13T13:12:11.546Z,97311.34
2018-02-13T13:14:42.691Z,97314.84
2018-02-13T13:17:13.792Z,97318.39
2018-02-13T13:19:44.959Z,97315.45
2018-02-13T13:22:16.012Z,97316.26
2018-02-13T13:24:47.048Z,97311.03
2018-02-13T13:27:18.061Z,97309.07
2018-02-13T13:29:49.109Z,97301.57
2018-02-13T13:32:20.126Z,97304.88
2018-02-13T13:34:51.263Z,97298.52
2018-02-13T13:37:22.308Z,97295.91
2018-02-13T13:39:53.292Z,97297.35
2018-02-13T13:42:24.315Z,97293.15
2018-02-13T13:44:55.268Z,97286.91
2018-02-13T13:47:26.271Z,97286.72
2018-02-13T13:49:57.240Z,97285.20
2018-02-13T13:52:28.247Z,97277.55
2018-02-13T13:54:59.285Z,97267.23
2018-02-13T13:57:30.282Z,97266.89
2018-02-13T14:00:01.311Z,97263.44
2018-02-13T14:02:32.388Z,97263.05
2018-02-13T14:05:03.421Z,97264.24
2018-02-13T14:07:34.525Z,97261.48
2018-02-13T14:10:05.550Z,97262.01
2018-02-13T14:12:36.577Z,97260.33
2018-02-13T14:15:07.675Z,97252.89
2018-02-13T14:17:38.686Z,97254.36
2018-02-13T14:20:09.803Z,97251.44
2018-02-13T14:22:40.801Z,97260.59
2018-02-13T14:25:11.843Z,97256.00
2018-02-13T14:27:42.841Z,97252.84
2018-02-13T14:30:13.909Z,97251.78
2018-02-13T14:32:44.859Z,97247.48
2018-02-13T14:35:15.904Z,97240.27
2018-02-13T14:37:46.898Z,97236.35
2018-02-13T14:40:17.931Z,97235.84
2018-02-13T14:42:48.964Z,97238.13
2018-02-13T14:45:19.945Z,97238.31
2018-02-13T14:47:50.970Z,97234.42
2018-02-13T14:50:21.942Z,97233.94
2018-02-13T14:52:52.956Z,97229.64
2018-02-13T14:55:24.012Z,97232.56
2018-02-13T14:57:54.976Z,97228.16
2018-02-13T15:00:26.007Z,97228.67
2018-02-13T15:02:56.994Z,97233.57
2018-02-13T15:05:28.017Z,97226.36
2018-02-13T15:07:59.037Z,97227.59
2018-02-13T15:10:30.053Z,97229.03
2018-02-13T15:13:01.125Z,97229.70
2018-02-13T15:15:42.132Z,97233.75
2018-02-13T15:18:17.258Z,97231.27
2018-02-13T15:20:48.336Z,97229.67
2018-02-13T15:23:19.383Z,97226.27
2018-02-13T15:25:51.146Z,97228.20
2018-02-13T15:28:22.669Z,97229.65
2018-02-13T15:30:53.734Z,97236.06
2018-02-13T15:33:24.857Z,97233.77
2018-02-13T15:35:55.820Z,97229.13
2018-02-13T15:38:26.942Z,97228.57
2018-02-13T15:40:58.038Z,97223.13
2018-02-13T15:43:29.076Z,97222.73
2018-02-13T15:46:00.056Z,97220.86
2018-02-13T15:48:31.055Z,97219.31
2018-02-13T15:51:02.062Z,97215.77
2018-02-13T15:53:33.080Z,97219.66
2018-02-13T15:56:04.188Z,97211.28
2018-02-13T15:58:36.084Z,97211.83
2018-02-13T16:01:07.266Z,97215.62
2018-02-13T16:03:38.291Z,97215.27
2018-02-13T16:06:09.281Z,97217.32
2018-02-13T16:08:40.303Z,97216.61
2018-02-13T16:11:11.382Z,97217.44
2018-02-13T16:13:42.370Z,97211.61
2018-02-13T16:16:16.265Z,97214.94
2018-02-13T16:18:47.284Z,97217.34
2018-02-13T16:21:18.293Z,97214.27
2018-02-13T16:23:49.300Z,97215.79
2018-02-13T16:26:20.322Z,97212.20
2018-02-13T16:28:51.268Z,97213.31
2018-02-13T16:31:22.277Z,97212.41
2018-02-13T16:33:53.272Z,97212.31
2018-02-13T16:36:24.318Z,97210.13
2018-02-13T16:38:55.314Z,97211.93
2018-02-13T16:41:26.334Z,97209.34
2018-02-13T16:43:57.395Z,97209.66
2018-02-13T16:46:28.392Z,97208.24
2018-02-13T16:48:59.415Z,97208.64
2018-02-13T16:51:30.417Z,97193.36
2018-02-13T16:54:01.449Z,97198.23
2018-02-13T16:56:32.439Z,97198.55
2018-02-13T16:59:03.433Z,97201.94
2018-02-13T17:01:34.523Z,97192.54
2018-02-13T17:04:05.550Z,97192.73
2018-02-13T17:06:36.678Z,97186.54
2018-02-13T17:09:07.981Z,97190.55
2018-02-13T17:11:39.447Z,97187.65
2018-02-13T17:14:10.453Z,97192.22
2018-02-13T17:16:41.490Z,97197.72
2018-02-13T17:19:12.491Z,97193.41
2018-02-13T17:21:43.522Z,97192.92
2018-02-13T17:24:14.565Z,97196.60
2018-02-13T17:26:45.598Z,97189.81
2018-02-13T17:29:16.573Z,97191.20
2018-02-13T17:31:47.575Z,97192.89
2018-02-13T17:34:18.631Z,97199.78
2018-02-13T17:36:49.740Z,97200.09
2018-02-13T17:39:20.748Z,97203.55
2018-02-13T17:41:51.761Z,97199.97
2018-02-13T17:44:22.731Z,97202.27
2018-02-13T17:46:53.723Z,97197.45
2018-02-13T17:49:24.724Z,97201.51
2018-02-13T17:51:55.705Z,97198.82
2018-02-13T17:54:26.718Z,97201.02
2018-02-13T17:56:57.733Z,97201.51
2018-02-13T17:59:28.724Z,97201.60
2018-02-13T18:01:59.699Z,97201.73
2018-02-13T18:04:30.670Z,97201.20
2018-02-13T18:07:01.670Z,97200.50
2018-02-13T18:09:32.700Z,97207.17
2018-02-13T18:12:03.737Z,97208.28
2018-02-13T18:14:34.782Z,97215.34
2018-02-13T18:17:05.762Z,97211.34
2018-02-13T18:19:36.764Z,97211.66
2018-02-13T18:22:07.870Z,97212.14
2018-02-13T18:24:38.901Z,97217.23
2018-02-13T18:27:09.939Z,97217.11
2018-02-13T18:29:40.960Z,97210.23
2018-02-13T18:32:11.973Z,97211.01
2018-02-13T18:34:42.967Z,97209.19
2018-02-13T18:37:14.193Z,97209.80
2018-02-13T18:39:45.263Z,97208.30
2018-02-13T18:42:16.249Z,97211.56
2018-02-13T18:44:47.284Z,97209.78
2018-02-13T18:47:18.330Z,97214.22
2018-02-13T18:49:49.314Z,97210.73
2018-02-13T18:54:51.319Z,97212.55
2018-02-13T18:57:22.296Z,97215.99
2018-02-13T19:02:30.989Z,97215.46
2018-02-13T19:05:02.016Z,97223.11
2018-02-13T19:07:33.048Z,97215.82
2018-02-13T19:10:04.267Z,97213.91
2018-02-13T19:12:35.439Z,97224.17
2018-02-13T19:15:06.676Z,97222.34
2018-02-13T19:17:37.705Z,97227.48
2018-02-13T19:20:08.756Z,97226.55
2018-02-13T19:22:39.759Z,97232.84
2018-02-13T19:25:10.775Z,97237.39
2018-02-13T19:27:41.743Z,97230.55
2018-02-13T19:30:12.865Z,97231.84
2018-02-13T19:32:43.830Z,97238.27
2018-02-13T19:35:14.809Z,97234.08
2018-02-13T19:37:45.799Z,97228.95
2018-02-13T19:40:16.808Z,97228.76
2018-02-13T19:42:47.853Z,97233.05
2018-02-13T19:45:19.044Z,97237.20
2018-02-13T19:47:50.081Z,97228.05
2018-02-13T19:50:21.149Z,97218.23
2018-02-13T19:52:52.148Z,97220.54
2018-02-13T19:55:23.280Z,97225.27
2018-02-13T19:57:54.327Z,97226.66
2018-02-13T20:00:25.505Z,97231.16
2018-02-13T20:02:56.509Z,97224.45
2018-02-13T20:05:27.515Z,97225.53
2018-02-13T20:07:58.512Z,97228.70
2018-02-13T20:10:29.498Z,97235.88
2018-02-13T20:13:00.490Z,97238.25
2018-02-13T20:15:31.493Z,97236.16
2018-02-13T20:18:02.486Z,97229.58
2018-02-13T20:20:33.498Z,97232.97
2018-02-13T20:23:04.467Z,97224.19
2018-02-13T20:25:35.498Z,97224.75
2018-02-13T20:28:06.523Z,97220.64
2018-02-13T20:30:37.499Z,97221.41
2018-02-13T20:33:08.602Z,97218.41
2018-02-13T20:35:39.655Z,97221.21
2018-02-13T20:38:10.644Z,97223.58
2018-02-13T20:40:41.606Z,97218.17
2018-02-13T20:43:12.691Z,97220.45
2018-02-13T20:45:43.710Z,97219.16
2018-02-13T20:48:14.797Z,97218.25
2018-02-13T20:50:45.847Z,97223.02
2018-02-13T20:53:16.860Z,97217.36
2018-02-13T20:55:47.880Z,97214.64
2018-02-13T20:58:18.829Z,97222.88
2018-02-13T21:00:49.875Z,97214.27
2018-02-13T21:03:20.858Z,97220.09
2018-02-13T21:05:51.869Z,97215.98
2018-02-13T21:08:22.906Z,97218.47
2018-02-13T21:10:53.871Z,97219.13
2018-02-13T21:13:24.919Z,97215.03
2018-02-13T21:15:55.960Z,97213.23
2018-02-13T21:18:26.987Z,97217.28
2018-02-13T21:20:57.977Z,97222.31
2018-02-13T21:23:29.009Z,97223.33
2018-02-13T21:26:00.021Z,97226.00
2018-02-13T21:28:31.102Z,97229.25
2018-02-13T21:31:02.124Z,97219.98
2018-02-13T21:33:33.152Z,97219.00
2018-02-13T21:36:04.135Z,97218.59
2018-02-13T21:38:35.152Z,97211.24
2018-02-13T21:41:06.193Z,97217.48
2018-02-13T21:43:37.208Z,97211.13
2018-02-13T21:46:08.168Z,97208.14
2018-02-13T21:48:39.203Z,97204.84
2018-02-13T21:51:10.159Z,97206.80
2018-02-13T21:53:41.197Z,97207.27
2018-02-13T21:56:12.159Z,97202.37
2018-02-13T21:58:43.204Z,97201.25
2018-02-13T22:01:14.225Z,97197.95
2018-02-13T22:03:45.262Z,97204.62
2018-02-13T22:06:16.281Z,97204.48
2018-02-13T22:08:47.243Z,97196.59
2018-02-13T22:11:18.265Z,97199.55
2018-02-13T22:13:49.224Z,97195.27
2018-02-13T22:16:20.288Z,97198.44
2018-02-13T22:18:51.281Z,97195.53
2018-02-13T22:21:22.304Z,97191.23
2018-02-13T22:23:53.341Z,97195.59
2018-02-13T22:26:24.310Z,97199.88
2018-02-13T22:29:02.171Z,97195.55
2018-02-13T22:31:33.132Z,97204.19
2018-02-13T22:34:04.135Z,97201.61
2018-02-13T22:36:42.323Z,97203.19
2018-02-13T22:39:13.346Z,97208.62
2018-02-13T22:41:44.318Z,97206.81
2018-02-13T22:44:22.401Z,97206.59
2018-02-13T22:46:53.346Z,97205.06
2018-02-13T22:49:24.405Z,97207.14
2018-02-13T22:51:55.405Z,97204.98
2018-02-13T22:54:26.445Z,97206.68
2018-02-13T22:56:57.448Z,97208.34
2018-02-13T22:59:28.476Z,97204.96
2018-02-13T23:01:59.437Z,97202.78
2018-02-13T23:04:30.528Z,97208.20
2018-02-13T23:07:01.518Z,97206.28
2018-02-13T23:09:32.523Z,97206.17
2018-02-13T23:12:03.497Z,97202.98
2018-02-13T23:14:34.512Z,97206.05
2018-02-13T23:17:05.487Z,97200.77
2018-02-13T23:19:36.892Z,97202.55
2018-02-13T23:22:07.872Z,97197.70
2018-02-13T23:24:38.888Z,97201.49
2018-02-13T23:27:09.922Z,97198.85
2018-02-13T23:29:40.900Z,97197.88
2018-02-13T23:32:11.939Z,97198.20
2018-02-13T23:34:42.897Z,97198.69
2018-02-13T23:37:14.085Z,97205.31
2018-02-13T23:39:45.106Z,97204.91
2018-02-13T23:42:16.087Z,97206.83
2018-02-13T23:44:47.123Z,97205.11
2018-02-13T23:47:18.078Z,97207.38
2018-02-13T23:49:49.108Z,97209.81
2018-02-13T23:52:20.096Z,97213.34
2018-02-13T23:54:51.149Z,97204.91
2018-02-13T23:57:22.104Z,97204.91
2018-02-13T23:59:53.119Z,97203.05
